sensor_id;sensor_type;location;lat;lon;timestamp;pressure;altitude;pressure_sealevel;temperature;humidity
44839;BME280;30576;42.098;24.876;2023-05-21T00:01:00;99434.25;;;17.40;71.74
44839;BME280;30576;42.098;24.876;2023-05-21T00:03:26;99452.22;;;17.72;70.85
44839;BME280;30576;42.098;24.876;2023-05-21T00:05:53;99463.63;;;17.95;68.94
44839;BME280;30576;42.098;24.876;2023-05-21T00:08:19;99437.50;;;17.83;68.83
44839;BME280;30576;42.098;24.876;2023-05-21T00:10:45;99451.31;;;18.10;68.49
44839;BME280;30576;42.098;24.876;2023-05-21T00:13:10;99460.44;;;18.06;67.76
44839;BME280;30576;42.098;24.876;2023-05-21T00:15:36;99432.78;;;18.07;67.64
44839;BME280;30576;42.098;24.876;2023-05-21T00:18:02;99453.63;;;18.35;67.30
44839;BME280;30576;42.098;24.876;2023-05-21T00:20:28;99431.53;;;18.32;67.46
44839;BME280;30576;42.098;24.876;2023-05-21T00:22:56;99423.69;;;18.29;67.59
44839;BME280;30576;42.098;24.876;2023-05-21T00:25:22;99423.84;;;18.43;66.64
44839;BME280;30576;42.098;24.876;2023-05-21T00:27:48;99452.03;;;18.66;66.98
44839;BME280;30576;42.098;24.876;2023-05-21T00:30:13;99417.78;;;18.39;67.41
44839;BME280;30576;42.098;24.876;2023-05-21T00:32:40;99428.56;;;18.38;67.76
44839;BME280;30576;42.098;24.876;2023-05-21T00:35:06;99424.56;;;18.29;67.81
44839;BME280;30576;42.098;24.876;2023-05-21T00:37:31;99423.69;;;18.29;68.05
44839;BME280;30576;42.098;24.876;2023-05-21T00:39:59;99395.44;;;17.88;69.00
44839;BME280;30576;42.098;24.876;2023-05-21T00:42:25;99413.00;;;17.75;70.03
44839;BME280;30576;42.098;24.876;2023-05-21T00:44:52;99416.69;;;17.72;70.59
44839;BME280;30576;42.098;24.876;2023-05-21T00:47:18;99408.09;;;17.65;70.78
44839;BME280;30576;42.098;24.876;2023-05-21T00:49:46;99408.25;;;17.62;71.52
44839;BME280;30576;42.098;24.876;2023-05-21T00:52:14;99407.56;;;17.59;72.31
44839;BME280;30576;42.098;24.876;2023-05-21T00:54:45;99392.94;;;17.48;72.04
44839;BME280;30576;42.098;24.876;2023-05-21T00:57:11;99396.09;;;17.57;72.21
44839;BME280;30576;42.098;24.876;2023-05-21T00:59:36;99407.13;;;17.85;70.87
44839;BME280;30576;42.098;24.876;2023-05-21T01:02:02;99387.59;;;17.85;70.58
44839;BME280;30576;42.098;24.876;2023-05-21T01:04:29;99377.22;;;17.79;71.27
44839;BME280;30576;42.098;24.876;2023-05-21T01:06:55;99424.44;;;17.96;72.31
44839;BME280;30576;42.098;24.876;2023-05-21T01:09:24;99389.94;;;17.74;72.60
44839;BME280;30576;42.098;24.876;2023-05-21T01:11:50;99389.50;;;17.83;72.55
44839;BME280;30576;42.098;24.876;2023-05-21T01:14:18;99420.94;;;17.95;72.90
44839;BME280;30576;42.098;24.876;2023-05-21T01:16:47;99409.09;;;17.82;73.81
44839;BME280;30576;42.098;24.876;2023-05-21T01:19:16;99421.88;;;17.94;73.83
44839;BME280;30576;42.098;24.876;2023-05-21T01:21:51;99372.97;;;17.75;73.48
44839;BME280;30576;42.098;24.876;2023-05-21T01:24:17;99407.75;;;17.92;73.73
44839;BME280;30576;42.098;24.876;2023-05-21T01:26:43;99391.81;;;17.71;74.28
44839;BME280;30576;42.098;24.876;2023-05-21T01:29:11;99426.91;;;17.81;74.53
44839;BME280;30576;42.098;24.876;2023-05-21T01:31:47;99398.19;;;17.69;74.39
44839;BME280;30576;42.098;24.876;2023-05-21T01:34:21;99412.91;;;17.76;74.54
44839;BME280;30576;42.098;24.876;2023-05-21T01:36:54;99406.19;;;17.69;74.72
44839;BME280;30576;42.098;24.876;2023-05-21T01:39:23;99379.00;;;17.24;76.10
44839;BME280;30576;42.098;24.876;2023-05-21T01:41:52;99411.97;;;17.41;75.38
44839;BME280;30576;42.098;24.876;2023-05-21T01:44:19;99402.81;;;17.46;74.89
44839;BME280;30576;42.098;24.876;2023-05-21T01:46:46;99368.19;;;17.27;75.17
44839;BME280;30576;42.098;24.876;2023-05-21T01:49:12;99371.13;;;17.02;76.29
44839;BME280;30576;42.098;24.876;2023-05-21T01:51:38;99379.84;;;16.85;77.99
44839;BME280;30576;42.098;24.876;2023-05-21T01:54:04;99408.00;;;16.92;76.83
44839;BME280;30576;42.098;24.876;2023-05-21T01:56:29;99377.13;;;17.07;76.22
44839;BME280;30576;42.098;24.876;2023-05-21T01:58:58;99354.94;;;16.67;72.83
44839;BME280;30576;42.098;24.876;2023-05-21T02:01:24;99397.88;;;17.20;70.04
44839;BME280;30576;42.098;24.876;2023-05-21T02:03:51;99377.81;;;17.30;70.64
44839;BME280;30576;42.098;24.876;2023-05-21T02:06:16;99338.50;;;17.16;68.12
44839;BME280;30576;42.098;24.876;2023-05-21T02:08:42;99372.25;;;17.34;68.32
44839;BME280;30576;42.098;24.876;2023-05-21T02:11:09;99371.97;;;17.41;69.32
44839;BME280;30576;42.098;24.876;2023-05-21T02:13:35;99329.13;;;17.26;68.77
44839;BME280;30576;42.098;24.876;2023-05-21T02:16:06;99355.78;;;17.26;69.77
44839;BME280;30576;42.098;24.876;2023-05-21T02:18:37;99368.97;;;17.29;70.62
44839;BME280;30576;42.098;24.876;2023-05-21T02:21:03;99382.34;;;17.47;71.18
44839;BME280;30576;42.098;24.876;2023-05-21T02:23:28;99389.63;;;17.43;71.77
44839;BME280;30576;42.098;24.876;2023-05-21T02:25:53;99350.78;;;17.57;71.08
44839;BME280;30576;42.098;24.876;2023-05-21T02:28:19;99371.88;;;17.61;70.72
44839;BME280;30576;42.098;24.876;2023-05-21T02:30:45;99362.91;;;17.62;70.73
44839;BME280;30576;42.098;24.876;2023-05-21T02:33:11;99360.75;;;17.88;69.88
44839;BME280;30576;42.098;24.876;2023-05-21T02:35:38;99369.06;;;17.82;68.59
44839;BME280;30576;42.098;24.876;2023-05-21T02:38:04;99393.13;;;17.99;68.67
44839;BME280;30576;42.098;24.876;2023-05-21T02:40:29;99356.09;;;17.93;68.63
44839;BME280;30576;42.098;24.876;2023-05-21T02:42:55;99392.50;;;17.94;70.26
44839;BME280;30576;42.098;24.876;2023-05-21T02:45:20;99369.13;;;17.63;71.43
44839;BME280;30576;42.098;24.876;2023-05-21T02:47:45;99365.22;;;17.33;72.42
44839;BME280;30576;42.098;24.876;2023-05-21T02:50:12;99387.88;;;17.61;71.75
44839;BME280;30576;42.098;24.876;2023-05-21T02:52:38;99375.22;;;17.47;71.61
44839;BME280;30576;42.098;24.876;2023-05-21T02:55:03;99369.00;;;17.66;70.51
44839;BME280;30576;42.098;24.876;2023-05-21T02:57:29;99353.06;;;17.64;70.22
44839;BME280;30576;42.098;24.876;2023-05-21T02:59:54;99373.88;;;17.56;71.70
44839;BME280;30576;42.098;24.876;2023-05-21T03:02:20;99353.59;;;17.53;71.04
44839;BME280;30576;42.098;24.876;2023-05-21T03:04:45;99390.34;;;17.83;70.57
44839;BME280;30576;42.098;24.876;2023-05-21T03:07:12;99391.19;;;18.03;70.14
44839;BME280;30576;42.098;24.876;2023-05-21T03:09:39;99381.13;;;17.91;69.90
44839;BME280;30576;42.098;24.876;2023-05-21T03:12:06;99368.59;;;17.74;70.51
44839;BME280;30576;42.098;24.876;2023-05-21T03:14:31;99353.44;;;17.57;71.17
44839;BME280;30576;42.098;24.876;2023-05-21T03:16:58;99378.00;;;17.81;71.03
44839;BME280;30576;42.098;24.876;2023-05-21T03:19:23;99393.06;;;17.64;71.48
44839;BME280;30576;42.098;24.876;2023-05-21T03:21:49;99358.03;;;17.53;71.94
44839;BME280;30576;42.098;24.876;2023-05-21T03:24:14;99388.28;;;17.71;71.98
44839;BME280;30576;42.098;24.876;2023-05-21T03:26:40;99389.06;;;17.73;70.98
44839;BME280;30576;42.098;24.876;2023-05-21T03:29:05;99366.88;;;17.72;70.89
44839;BME280;30576;42.098;24.876;2023-05-21T03:31:31;99345.00;;;17.47;70.79
44839;BME280;30576;42.098;24.876;2023-05-21T03:33:56;99399.91;;;17.89;69.87
44839;BME280;30576;42.098;24.876;2023-05-21T03:36:22;99398.47;;;17.99;69.47
44839;BME280;30576;42.098;24.876;2023-05-21T03:38:48;99404.47;;;18.04;69.54
44839;BME280;30576;42.098;24.876;2023-05-21T03:41:14;99405.22;;;18.06;70.38
44839;BME280;30576;42.098;24.876;2023-05-21T03:43:40;99396.75;;;18.16;70.90
44839;BME280;30576;42.098;24.876;2023-05-21T03:46:05;99399.59;;;17.95;71.56
44839;BME280;30576;42.098;24.876;2023-05-21T03:48:31;99385.50;;;17.55;72.49
44839;BME280;30576;42.098;24.876;2023-05-21T03:50:56;99398.81;;;17.74;72.23
44839;BME280;30576;42.098;24.876;2023-05-21T03:53:22;99394.97;;;17.80;71.68
44839;BME280;30576;42.098;24.876;2023-05-21T03:55:47;99407.59;;;17.95;71.16
44839;BME280;30576;42.098;24.876;2023-05-21T03:58:21;99376.94;;;17.85;70.93
44839;BME280;30576;42.098;24.876;2023-05-21T04:00:46;99405.84;;;18.12;70.59
44839;BME280;30576;42.098;24.876;2023-05-21T04:03:12;99419.13;;;18.13;70.38
44839;BME280;30576;42.098;24.876;2023-05-21T04:05:38;99402.31;;;18.29;69.37
44839;BME280;30576;42.098;24.876;2023-05-21T04:08:03;99391.66;;;18.11;71.69
44839;BME280;30576;42.098;24.876;2023-05-21T04:10:29;99347.38;;;17.89;71.98
44839;BME280;30576;42.098;24.876;2023-05-21T04:12:54;99373.22;;;17.89;73.61
44839;BME280;30576;42.098;24.876;2023-05-21T04:15:20;99379.81;;;17.80;73.95
44839;BME280;30576;42.098;24.876;2023-05-21T04:17:45;99345.84;;;17.66;74.26
44839;BME280;30576;42.098;24.876;2023-05-21T04:20:12;99397.38;;;18.03;73.80
44839;BME280;30576;42.098;24.876;2023-05-21T04:22:38;99399.66;;;17.75;74.08
44839;BME280;30576;42.098;24.876;2023-05-21T04:25:04;99397.94;;;17.93;73.46
44839;BME280;30576;42.098;24.876;2023-05-21T04:27:29;99383.03;;;18.06;72.44
44839;BME280;30576;42.098;24.876;2023-05-21T04:29:55;99395.28;;;18.28;71.26
44839;BME280;30576;42.098;24.876;2023-05-21T04:32:22;99378.88;;;18.35;70.83
44839;BME280;30576;42.098;24.876;2023-05-21T04:34:47;99369.97;;;18.35;71.05
44839;BME280;30576;42.098;24.876;2023-05-21T04:37:13;99392.03;;;18.56;70.02
44839;BME280;30576;42.098;24.876;2023-05-21T04:39:38;99387.63;;;18.55;71.07
44839;BME280;30576;42.098;24.876;2023-05-21T04:42:05;99393.22;;;18.33;72.31
44839;BME280;30576;42.098;24.876;2023-05-21T04:44:31;99378.53;;;18.24;72.69
44839;BME280;30576;42.098;24.876;2023-05-21T04:46:56;99380.59;;;18.19;72.86
44839;BME280;30576;42.098;24.876;2023-05-21T04:49:22;99391.16;;;18.38;72.44
44839;BME280;30576;42.098;24.876;2023-05-21T04:51:48;99402.41;;;18.45;72.03
44839;BME280;30576;42.098;24.876;2023-05-21T04:54:14;99385.28;;;18.31;72.03
44839;BME280;30576;42.098;24.876;2023-05-21T04:56:39;99403.97;;;18.31;72.63
44839;BME280;30576;42.098;24.876;2023-05-21T04:59:05;99395.66;;;18.37;72.10
44839;BME280;30576;42.098;24.876;2023-05-21T05:01:31;99369.19;;;18.33;71.45
44839;BME280;30576;42.098;24.876;2023-05-21T05:03:57;99414.03;;;18.43;72.93
44839;BME280;30576;42.098;24.876;2023-05-21T05:06:22;99407.44;;;18.51;72.46
44839;BME280;30576;42.098;24.876;2023-05-21T05:08:50;99412.44;;;18.39;73.50
44839;BME280;30576;42.098;24.876;2023-05-21T05:11:16;99386.00;;;18.17;74.13
44839;BME280;30576;42.098;24.876;2023-05-21T05:13:41;99376.19;;;18.35;72.76
44839;BME280;30576;42.098;24.876;2023-05-21T05:16:07;99376.50;;;18.29;72.58
44839;BME280;30576;42.098;24.876;2023-05-21T05:18:33;99419.75;;;18.53;73.42
44839;BME280;30576;42.098;24.876;2023-05-21T05:20:59;99410.28;;;18.48;73.49
44839;BME280;30576;42.098;24.876;2023-05-21T05:23:25;99428.66;;;18.54;74.33
44839;BME280;30576;42.098;24.876;2023-05-21T05:25:51;99355.53;;;18.04;75.16
44839;BME280;30576;42.098;24.876;2023-05-21T05:28:16;99413.09;;;18.27;75.79
44839;BME280;30576;42.098;24.876;2023-05-21T05:30:42;99390.03;;;18.26;75.58
44839;BME280;30576;42.098;24.876;2023-05-21T05:33:07;99399.19;;;18.38;75.73
44839;BME280;30576;42.098;24.876;2023-05-21T05:35:33;99419.44;;;18.42;74.49
44839;BME280;30576;42.098;24.876;2023-05-21T05:37:59;99430.34;;;18.55;73.69
44839;BME280;30576;42.098;24.876;2023-05-21T05:40:24;99421.31;;;18.57;73.54
44839;BME280;30576;42.098;24.876;2023-05-21T05:42:50;99399.25;;;18.54;73.21
44839;BME280;30576;42.098;24.876;2023-05-21T05:45:17;99432.84;;;18.75;73.24
44839;BME280;30576;42.098;24.876;2023-05-21T05:47:43;99422.78;;;18.81;73.54
44839;BME280;30576;42.098;24.876;2023-05-21T05:50:09;99403.16;;;18.64;73.14
44839;BME280;30576;42.098;24.876;2023-05-21T05:52:35;99409.59;;;18.77;73.12
44839;BME280;30576;42.098;24.876;2023-05-21T05:55:00;99416.38;;;18.85;72.57
44839;BME280;30576;42.098;24.876;2023-05-21T05:57:26;99424.91;;;18.91;72.42
44839;BME280;30576;42.098;24.876;2023-05-21T05:59:52;99430.63;;;18.84;73.16
44839;BME280;30576;42.098;24.876;2023-05-21T06:02:18;99434.25;;;18.83;74.39
44839;BME280;30576;42.098;24.876;2023-05-21T06:04:43;99433.19;;;18.87;74.73
44839;BME280;30576;42.098;24.876;2023-05-21T06:07:09;99416.28;;;18.69;74.79
44839;BME280;30576;42.098;24.876;2023-05-21T06:09:34;99432.69;;;18.78;75.60
44839;BME280;30576;42.098;24.876;2023-05-21T06:11:59;99445.59;;;18.88;74.84
44839;BME280;30576;42.098;24.876;2023-05-21T06:14:25;99416.81;;;18.75;74.73
44839;BME280;30576;42.098;24.876;2023-05-21T06:16:50;99442.13;;;18.86;75.30
44839;BME280;30576;42.098;24.876;2023-05-21T06:19:16;99410.41;;;18.62;75.26
44839;BME280;30576;42.098;24.876;2023-05-21T06:21:41;99419.41;;;18.77;76.85
44839;BME280;30576;42.098;24.876;2023-05-21T06:24:07;99419.50;;;18.75;76.52
44839;BME280;30576;42.098;24.876;2023-05-21T06:26:32;99437.06;;;18.79;74.19
44839;BME280;30576;42.098;24.876;2023-05-21T06:28:58;99416.59;;;18.63;73.56
44839;BME280;30576;42.098;24.876;2023-05-21T06:31:23;99439.13;;;18.92;72.86
44839;BME280;30576;42.098;24.876;2023-05-21T06:33:48;99450.16;;;18.86;72.85
44839;BME280;30576;42.098;24.876;2023-05-21T06:36:14;99411.66;;;18.72;72.01
44839;BME280;30576;42.098;24.876;2023-05-21T06:38:40;99461.94;;;19.15;70.74
44839;BME280;30576;42.098;24.876;2023-05-21T06:41:07;99434.53;;;19.11;70.46
44839;BME280;30576;42.098;24.876;2023-05-21T06:43:32;99444.53;;;19.08;72.01
44839;BME280;30576;42.098;24.876;2023-05-21T06:45:58;99417.13;;;18.87;71.74
44839;BME280;30576;42.098;24.876;2023-05-21T06:48:34;99447.97;;;19.10;72.32
44839;BME280;30576;42.098;24.876;2023-05-21T06:51:00;99424.31;;;19.36;69.48
44839;BME280;30576;42.098;24.876;2023-05-21T06:53:25;99439.03;;;19.43;70.68
44839;BME280;30576;42.098;24.876;2023-05-21T06:55:59;99422.72;;;19.47;69.40
44839;BME280;30576;42.098;24.876;2023-05-21T06:58:26;99441.13;;;19.54;70.59
44839;BME280;30576;42.098;24.876;2023-05-21T07:00:56;99424.19;;;19.21;71.03
44839;BME280;30576;42.098;24.876;2023-05-21T07:03:21;99444.94;;;19.49;71.80
44839;BME280;30576;42.098;24.876;2023-05-21T07:05:48;99439.06;;;19.59;72.43
44839;BME280;30576;42.098;24.876;2023-05-21T07:08:13;99423.66;;;19.30;71.78
44839;BME280;30576;42.098;24.876;2023-05-21T07:10:39;99426.97;;;19.36;72.53
44839;BME280;30576;42.098;24.876;2023-05-21T07:13:04;99430.59;;;19.66;69.95
44839;BME280;30576;42.098;24.876;2023-05-21T07:15:30;99429.91;;;19.63;72.65
44839;BME280;30576;42.098;24.876;2023-05-21T07:17:55;99444.00;;;19.82;73.15
44839;BME280;30576;42.098;24.876;2023-05-21T07:20:21;99433.78;;;19.89;71.82
44839;BME280;30576;42.098;24.876;2023-05-21T07:22:46;99439.94;;;20.21;70.81
44839;BME280;30576;42.098;24.876;2023-05-21T07:25:12;99423.75;;;20.09;70.38
44839;BME280;30576;42.098;24.876;2023-05-21T07:27:37;99415.13;;;20.03;71.57
44839;BME280;30576;42.098;24.876;2023-05-21T07:30:03;99443.25;;;20.41;70.54
44839;BME280;30576;42.098;24.876;2023-05-21T07:32:30;99382.44;;;19.82;72.88
44839;BME280;30576;42.098;24.876;2023-05-21T07:34:58;99401.84;;;20.02;70.42
44839;BME280;30576;42.098;24.876;2023-05-21T07:37:26;99444.91;;;20.44;70.59
44839;BME280;30576;42.098;24.876;2023-05-21T07:59:26;99438.09;;;21.40;59.20
44839;BME280;30576;42.098;24.876;2023-05-21T08:01:51;99476.22;;;21.31;61.76
44839;BME280;30576;42.098;24.876;2023-05-21T08:04:17;99438.00;;;21.27;62.14
44839;BME280;30576;42.098;24.876;2023-05-21T08:06:42;99466.19;;;21.49;60.68
44839;BME280;30576;42.098;24.876;2023-05-21T08:09:08;99467.41;;;21.43;61.80
44839;BME280;30576;42.098;24.876;2023-05-21T08:11:34;99447.19;;;21.38;60.39
44839;BME280;30576;42.098;24.876;2023-05-21T08:13:59;99463.66;;;21.32;60.17
44839;BME280;30576;42.098;24.876;2023-05-21T08:16:25;99449.63;;;20.99;61.92
44839;BME280;30576;42.098;24.876;2023-05-21T08:18:50;99421.19;;;20.52;62.65
44839;BME280;30576;42.098;24.876;2023-05-21T08:21:16;99450.28;;;20.58;63.99
44839;BME280;30576;42.098;24.876;2023-05-21T08:23:42;99411.78;;;20.45;62.69
44839;BME280;30576;42.098;24.876;2023-05-21T08:26:08;99450.25;;;20.74;62.11
44839;BME280;30576;42.098;24.876;2023-05-21T08:28:36;99435.66;;;20.64;61.47
44839;BME280;30576;42.098;24.876;2023-05-21T08:31:05;99457.22;;;20.32;63.41
44839;BME280;30576;42.098;24.876;2023-05-21T08:33:30;99433.78;;;20.35;62.16
44839;BME280;30576;42.098;24.876;2023-05-21T08:35:56;99428.84;;;20.44;61.04
44839;BME280;30576;42.098;24.876;2023-05-21T08:38:21;99453.22;;;20.39;61.75
44839;BME280;30576;42.098;24.876;2023-05-21T08:40:49;99453.91;;;20.57;62.44
44839;BME280;30576;42.098;24.876;2023-05-21T08:43:16;99438.22;;;20.51;62.50
44839;BME280;30576;42.098;24.876;2023-05-21T08:45:44;99441.72;;;20.37;61.85
44839;BME280;30576;42.098;24.876;2023-05-21T08:48:14;99421.84;;;20.11;63.21
44839;BME280;30576;42.098;24.876;2023-05-21T08:50:41;99448.69;;;20.25;61.96
44839;BME280;30576;42.098;24.876;2023-05-21T08:53:08;99412.59;;;20.16;63.37
44839;BME280;30576;42.098;24.876;2023-05-21T08:55:34;99437.75;;;20.58;62.53
44839;BME280;30576;42.098;24.876;2023-05-21T08:58:03;99413.16;;;20.52;63.76
44839;BME280;30576;42.098;24.876;2023-05-21T09:00:28;99453.81;;;21.03;62.64
44839;BME280;30576;42.098;24.876;2023-05-21T09:02:54;99431.63;;;20.87;61.94
44839;BME280;30576;42.098;24.876;2023-05-21T09:05:21;99449.53;;;21.01;61.28
44839;BME280;30576;42.098;24.876;2023-05-21T09:07:58;99445.47;;;21.22;59.65
44839;BME280;30576;42.098;24.876;2023-05-21T09:10:30;99409.88;;;21.06;60.68
44839;BME280;30576;42.098;24.876;2023-05-21T09:12:58;99445.47;;;21.37;59.44
44839;BME280;30576;42.098;24.876;2023-05-21T09:15:24;99448.06;;;21.38;59.13
44839;BME280;30576;42.098;24.876;2023-05-21T09:17:49;99431.97;;;21.24;59.32
44839;BME280;30576;42.098;24.876;2023-05-21T09:20:15;99406.75;;;21.41;56.58
44839;BME280;30576;42.098;24.876;2023-05-21T09:22:46;99405.25;;;21.78;56.40
44839;BME280;30576;42.098;24.876;2023-05-21T09:25:14;99431.72;;;21.97;56.41
44839;BME280;30576;42.098;24.876;2023-05-21T09:27:40;99434.41;;;21.97;57.70
44839;BME280;30576;42.098;24.876;2023-05-21T09:30:10;99392.06;;;21.88;56.13
44839;BME280;30576;42.098;24.876;2023-05-21T09:32:37;99431.53;;;22.00;55.05
44839;BME280;30576;42.098;24.876;2023-05-21T09:35:10;99421.53;;;22.03;56.25
44839;BME280;30576;42.098;24.876;2023-05-21T09:37:56;99429.03;;;22.25;56.94
44839;BME280;30576;42.098;24.876;2023-05-21T09:40:22;99442.63;;;22.36;55.65
44839;BME280;30576;42.098;24.876;2023-05-21T09:42:50;99395.97;;;21.97;57.48
44839;BME280;30576;42.098;24.876;2023-05-21T09:45:19;99449.31;;;22.69;55.60
44839;BME280;30576;42.098;24.876;2023-05-21T09:47:46;99440.94;;;22.48;56.03
44839;BME280;30576;42.098;24.876;2023-05-21T09:50:13;99431.13;;;22.34;55.43
44839;BME280;30576;42.098;24.876;2023-05-21T09:52:41;99437.78;;;22.41;54.72
44839;BME280;30576;42.098;24.876;2023-05-21T09:55:09;99424.59;;;22.24;55.36
44839;BME280;30576;42.098;24.876;2023-05-21T09:57:45;99438.78;;;22.26;55.08
44839;BME280;30576;42.098;24.876;2023-05-21T10:00:26;99401.38;;;21.82;56.19
44839;BME280;30576;42.098;24.876;2023-05-21T10:02:55;99444.75;;;22.04;55.16
44839;BME280;30576;42.098;24.876;2023-05-21T10:05:24;99397.91;;;21.68;56.58
44839;BME280;30576;42.098;24.876;2023-05-21T10:07:51;99436.75;;;21.89;57.13
44839;BME280;30576;42.098;24.876;2023-05-21T10:10:19;99448.25;;;21.91;55.55
44839;BME280;30576;42.098;24.876;2023-05-21T10:12:49;99415.78;;;21.81;57.43
44839;BME280;30576;42.098;24.876;2023-05-21T10:15:19;99426.22;;;21.86;57.33
44839;BME280;30576;42.098;24.876;2023-05-21T10:17:47;99428.13;;;21.84;56.26
44839;BME280;30576;42.098;24.876;2023-05-21T10:20:13;99426.00;;;21.48;56.49
44839;BME280;30576;42.098;24.876;2023-05-21T10:22:39;99455.50;;;21.33;58.19
44839;BME280;30576;42.098;24.876;2023-05-21T10:25:09;99439.56;;;21.03;57.99
44839;BME280;30576;42.098;24.876;2023-05-21T10:27:35;99448.19;;;20.63;59.89
44839;BME280;30576;42.098;24.876;2023-05-21T10:30:03;99434.53;;;20.68;58.87
44839;BME280;30576;42.098;24.876;2023-05-21T10:32:30;99439.47;;;20.60;59.85
44839;BME280;30576;42.098;24.876;2023-05-21T10:34:56;99461.34;;;20.68;58.01
44839;BME280;30576;42.098;24.876;2023-05-21T10:37:25;99430.25;;;20.80;59.02
44839;BME280;30576;42.098;24.876;2023-05-21T10:39:52;99426.72;;;20.79;58.33
44839;BME280;30576;42.098;24.876;2023-05-21T11:01:18;99395.31;;;20.81;60.26
44839;BME280;30576;42.098;24.876;2023-05-21T11:03:48;99444.31;;;21.26;60.54
44839;BME280;30576;42.098;24.876;2023-05-21T11:06:26;99443.75;;;21.36;59.21
44839;BME280;30576;42.098;24.876;2023-05-21T11:08:52;99447.19;;;21.38;58.36
44839;BME280;30576;42.098;24.876;2023-05-21T11:11:50;99440.25;;;21.62;57.53
44839;BME280;30576;42.098;24.876;2023-05-21T11:14:30;99401.84;;;21.48;57.43
44839;BME280;30576;42.098;24.876;2023-05-21T11:17:03;99441.81;;;21.94;55.67
44839;BME280;30576;42.098;24.876;2023-05-21T11:22:00;99393.91;;;21.46;58.26
44839;BME280;30576;42.098;24.876;2023-05-21T11:24:25;99431.84;;;21.54;58.40
44839;BME280;30576;42.098;24.876;2023-05-21T11:29:40;99415.84;;;21.53;58.13
44839;BME280;30576;42.098;24.876;2023-05-21T11:32:10;99375.59;;;21.53;58.69
44839;BME280;30576;42.098;24.876;2023-05-21T11:39:43;99364.00;;;21.10;56.56
44839;BME280;30576;42.098;24.876;2023-05-21T11:42:09;99417.59;;;21.54;57.20
44839;BME280;30576;42.098;24.876;2023-05-21T11:44:42;99432.22;;;21.62;57.07
44839;BME280;30576;42.098;24.876;2023-05-21T11:47:09;99401.03;;;21.74;55.74
44839;BME280;30576;42.098;24.876;2023-05-21T11:49:36;99419.41;;;22.08;56.22
44839;BME280;30576;42.098;24.876;2023-05-21T11:52:03;99398.16;;;22.05;55.86
44839;BME280;30576;42.098;24.876;2023-05-21T11:54:30;99393.53;;;22.07;57.59
44839;BME280;30576;42.098;24.876;2023-05-21T11:57:01;99388.66;;;21.99;56.52
44839;BME280;30576;42.098;24.876;2023-05-21T11:59:27;99427.19;;;22.25;56.45
44839;BME280;30576;42.098;24.876;2023-05-21T12:01:53;99397.63;;;22.12;55.17
44839;BME280;30576;42.098;24.876;2023-05-21T12:04:19;99402.22;;;22.10;56.55
44839;BME280;30576;42.098;24.876;2023-05-21T12:06:44;99393.09;;;22.13;55.98
44839;BME280;30576;42.098;24.876;2023-05-21T12:09:10;99382.78;;;22.20;55.52
44839;BME280;30576;42.098;24.876;2023-05-21T12:11:40;99358.16;;;22.00;56.74
44839;BME280;30576;42.098;24.876;2023-05-21T12:14:07;99395.16;;;22.22;56.35
44839;BME280;30576;42.098;24.876;2023-05-21T12:16:34;99353.94;;;21.83;56.87
44839;BME280;30576;42.098;24.876;2023-05-21T12:19:00;99373.84;;;21.66;57.32
44839;BME280;30576;42.098;24.876;2023-05-21T12:21:27;99347.22;;;21.63;57.47
44839;BME280;30576;42.098;24.876;2023-05-21T12:23:54;99392.31;;;21.98;57.05
44839;BME280;30576;42.098;24.876;2023-05-21T12:26:19;99372.13;;;21.92;57.73
44839;BME280;30576;42.098;24.876;2023-05-21T12:28:46;99372.28;;;21.49;60.38
44839;BME280;30576;42.098;24.876;2023-05-21T12:31:15;99370.47;;;21.77;60.83
44839;BME280;30576;42.098;24.876;2023-05-21T12:33:46;99370.66;;;21.74;59.24
44839;BME280;30576;42.098;24.876;2023-05-21T12:36:29;99386.00;;;22.12;61.24
44839;BME280;30576;42.098;24.876;2023-05-21T12:38:58;99391.97;;;22.30;60.51
44839;BME280;30576;42.098;24.876;2023-05-21T12:41:23;99392.78;;;22.45;59.24
44839;BME280;30576;42.098;24.876;2023-05-21T12:43:49;99364.81;;;22.34;57.44
44839;BME280;30576;42.098;24.876;2023-05-21T12:46:15;99354.78;;;22.24;58.14
44839;BME280;30576;42.098;24.876;2023-05-21T12:48:48;99391.81;;;22.59;58.02
44839;BME280;30576;42.098;24.876;2023-05-21T12:51:15;99342.88;;;22.66;57.40
44839;BME280;30576;42.098;24.876;2023-05-21T12:53:42;99355.13;;;22.70;58.19
44839;BME280;30576;42.098;24.876;2023-05-21T12:56:10;99363.41;;;22.93;57.71
44839;BME280;30576;42.098;24.876;2023-05-21T12:58:36;99358.34;;;23.14;56.46
44839;BME280;30576;42.098;24.876;2023-05-21T13:01:09;99380.66;;;23.40;56.64
44839;BME280;30576;42.098;24.876;2023-05-21T13:03:40;99371.28;;;23.70;57.70
44839;BME280;30576;42.098;24.876;2023-05-21T13:06:06;99357.00;;;23.81;54.33
44839;BME280;30576;42.098;24.876;2023-05-21T13:08:32;99371.47;;;24.16;52.53
44839;BME280;30576;42.098;24.876;2023-05-21T13:11:02;99369.44;;;24.30;53.08
44839;BME280;30576;42.098;24.876;2023-05-21T13:13:28;99353.28;;;23.95;52.45
44839;BME280;30576;42.098;24.876;2023-05-21T13:15:54;99362.75;;;24.36;51.63
44839;BME280;30576;42.098;24.876;2023-05-21T13:18:20;99340.53;;;24.33;50.68
44839;BME280;30576;42.098;24.876;2023-05-21T13:20:46;99371.97;;;24.56;50.56
44839;BME280;30576;42.098;24.876;2023-05-21T13:23:13;99361.41;;;24.53;50.02
44839;BME280;30576;42.098;24.876;2023-05-21T13:25:39;99369.19;;;24.69;50.73
44839;BME280;30576;42.098;24.876;2023-05-21T13:28:04;99334.50;;;24.64;49.47
44839;BME280;30576;42.098;24.876;2023-05-21T13:30:31;99372.38;;;24.97;47.19
44839;BME280;30576;42.098;24.876;2023-05-21T13:32:59;99349.44;;;24.80;46.33
44839;BME280;30576;42.098;24.876;2023-05-21T13:35:24;99343.41;;;24.54;50.29
44839;BME280;30576;42.098;24.876;2023-05-21T13:37:50;99330.28;;;24.49;48.71